Flight Track Log - Related Links

Times and Time Zones

All times are in EDT time to prevent confusion due to time zone crossing. See the AWI3551 flight status page for this flight to view local times or setup timezone preferences in your user account.


Time Position Orientation Groundspeed Altitude Reporting Facility
EDT Latitude Longitude Course Direction KTS MPH feet Rate Location/Type
Tue 05:32:09 AM 42.9500 -78.7167 174° South 161 185 1,500  Level Buffalo TRACON
Tue 05:33:15 AM 43.0000 -78.6667 36° Northeast 207 238 3,500 1,846 Climbing Buffalo TRACON
Tue 05:34:00 AM 42.6114 -78.6823 172° South  Level FlightAware Approximate
Tue 05:34:19 AM 42.9625 -78.6172 136° Southeast 224 258 5,500  Level Cleveland Center
Tue 05:35:00 AM 42.5045 -78.6619 173° South  Level FlightAware Approximate
Tue 05:35:19 AM 42.8856 -78.6308 187° South 224 258 7,100  Level Cleveland Center
Tue 05:36:00 AM 42.3970 -78.6500 180° South  Level FlightAware Approximate
Tue 05:36:19 AM 42.8106 -78.6333 181° South 256 295 9,000  Level Cleveland Center
Tue 05:37:00 AM 42.3029 -78.6409 174° South  Level FlightAware Approximate
Tue 05:37:19 AM 42.7439 -78.6297 178° South 275 316 10,600  Level Cleveland Center
Tue 05:38:19 AM 42.6622 -78.6153 173° South 281 323 12,500 1,900 Climbing Cleveland Center
Tue 05:39:19 AM 42.5842 -78.5614 153° Southeast 297 342 14,400 1,750 Climbing Cleveland Center
Tue 05:40:19 AM 42.5019 -78.5075 154° Southeast 314 361 16,000 1,650 Climbing Cleveland Center
Tue 05:41:19 AM 42.4197 -78.4511 153° Southeast 319 367 17,700 1,400 Climbing Cleveland Center
Tue 05:42:19 AM 42.3331 -78.3950 154° Southeast 324 373 18,800 1,100 Climbing Cleveland Center
Tue 05:43:19 AM 42.2486 -78.3392 154° Southeast 329 379 19,900 1,100 Climbing Cleveland Center
Tue 05:44:19 AM 42.1494 -78.2725 154° Southeast 349 402 21,000 550 Climbing Cleveland Center
Tue 05:45:19 AM 42.0586 -78.2144 155° Southeast 354 407 21,000  Level Cleveland Center
Tue 05:46:19 AM 41.9803 -78.1614 153° Southeast 348 400 21,000  Level Cleveland Center
Tue 05:47:19 AM 41.8831 -78.0953 153° Southeast 348 400 21,000  Level Cleveland Center
Tue 05:48:27 AM 41.7847 -78.0317 154° Southeast 348 400 21,000  Level New York Center
Tue 05:49:28 AM 41.6989 -77.9722 153° Southeast 348 400 21,000  Level New York Center
Tue 05:50:27 AM 41.6108 -77.9128 153° Southeast 348 400 21,000  Level New York Center
Tue 05:51:27 AM 41.5244 -77.8564 154° Southeast 348 400 21,000  Level New York Center
Tue 05:52:27 AM 41.4403 -77.8006 154° Southeast 348 400 21,000  Level New York Center
Tue 05:53:27 AM 41.3542 -77.7444 154° Southeast 348 400 21,000  Level New York Center
Tue 05:54:28 AM 41.2697 -77.6917 155° Southeast 348 400 21,000  Level New York Center
Tue 05:55:29 AM 41.1856 -77.6333 152° Southeast 348 400 21,000 -202 Level New York Center
Tue 05:56:27 AM 41.0992 -77.5778 154° Southeast 348 400 20,600 -756 Descending New York Center
Tue 05:57:28 AM 41.0086 -77.5219 155° Southeast 353 406 19,500 -1,050 Descending New York Center
Tue 05:58:27 AM 40.9142 -77.4603 154° Southeast 359 413 18,500 -756 Descending New York Center
Tue 05:59:27 AM 40.8217 -77.3992 153° Southeast 372 428 18,000 -246 Descending New York Center
Tue 06:00:29 AM 40.7311 -77.3411 154° Southeast 372 428 18,000  Level New York Center
Tue 06:01:27 AM 40.6503 -77.2950 157° South 362 417 18,000  Level New York Center
Tue 06:02:27 AM 40.5675 -77.2081 141° Southeast 344 396 18,000  Level New York Center
Tue 06:03:28 AM 40.5208 -77.1081 122° Southeast 349 402 18,000  Level New York Center
Tue 06:04:28 AM 40.4606 -76.9853 123° Southeast 355 409 18,000 -347 Level New York Center
Tue 06:05:29 AM 40.4081 -76.8714 121° Southeast 364 419 17,300 -1,150 Descending New York Center
Tue 06:06:28 AM 40.3533 -76.7631 124° Southeast 364 419 15,700 -1,600 Descending New York Center
Tue 06:07:29 AM 40.3003 -76.6550 123° Southeast 364 419 14,100 -1,563 Descending New York Center
Tue 06:08:27 AM 40.2508 -76.5583 124° Southeast 364 419 12,600 -1,650 Descending New York Center
Tue 06:09:29 AM 40.1958 -76.4450 122° Southeast 351 404 10,800 -1,300 Descending New York Center
Tue 06:10:27 AM 40.1483 -76.3514 124° Southeast 327 376 10,000 -407 Descending New York Center
Tue 06:11:27 AM 40.1175 -76.2514 112° Southeast 299 344 10,000 -50 Level New York Center
Tue 06:12:27 AM 40.1117 -76.1531 94° East 293 337 9,900 -595 Descending New York Center
Tue 06:13:28 AM 40.0983 -76.0325 98° East 298 343 8,800 -1,150 Descending New York Center
Tue 06:14:27 AM 40.0497 -75.9531 129° Southeast 277 319 7,600 -1,200 Descending New York Center
Tue 06:15:28 AM 39.9989 -75.8761 131° Southeast 277 319 6,400 -793 Descending New York Center
Tue 06:16:28 AM 39.9497 -75.8075 133° Southeast 270 311 6,000 -397 Descending New York Center
Tue 06:17:29 AM 39.9106 -75.7450 129° Southeast 233 268 5,600 -706 Descending New York Center
Tue 06:18:27 AM 39.8778 -75.6858 126° Southeast 215 247 4,600 -807 Descending New York Center
Tue 06:19:28 AM 39.8558 -75.6114 111° Southeast 210 242 4,000 -650 Descending New York Center
Tue 06:20:27 AM 39.8356 -75.5450 112° Southeast 210 242 3,300 -712 Descending New York Center

Login

Don't have an account? Register now (free) for customized features, flight alerts, and more!